sensor_id;sensor_type;location;lat;lon;timestamp;P1;P2;P0
49778;PMS5003;36217;60.232;24.776;2023-02-15T00:01:57;3;3;
49778;PMS5003;36217;60.232;24.776;2023-02-15T00:04:34;6;4;
49778;PMS5003;36217;60.232;24.776;2023-02-15T00:07:12;2;2;
49778;PMS5003;36217;60.232;24.776;2023-02-15T00:09:50;3;3;
49778;PMS5003;36217;60.232;24.776;2023-02-15T00:12:27;4;2;
49778;PMS5003;36217;60.232;24.776;2023-02-15T00:15:04;6;4;
49778;PMS5003;36217;60.232;24.776;2023-02-15T00:17:41;2;2;
49778;PMS5003;36217;60.232;24.776;2023-02-15T00:20:18;3;3;
49778;PMS5003;36217;60.232;24.776;2023-02-15T00:22:55;8;6;
49778;PMS5003;36217;60.232;24.776;2023-02-15T00:25:31;3;3;
49778;PMS5003;36217;60.232;24.776;2023-02-15T00:28:08;6;3;
49778;PMS5003;36217;60.232;24.776;2023-02-15T00:30:45;2;2;
49778;PMS5003;36217;60.232;24.776;2023-02-15T00:33:22;2;2;
49778;PMS5003;36217;60.232;24.776;2023-02-15T00:36:01;2;2;
49778;PMS5003;36217;60.232;24.776;2023-02-15T00:38:39;4;2;
49778;PMS5003;36217;60.232;24.776;2023-02-15T00:41:16;4;4;
49778;PMS5003;36217;60.232;24.776;2023-02-15T00:44:04;3;3;
49778;PMS5003;36217;60.232;24.776;2023-02-15T00:46:41;4;3;
49778;PMS5003;36217;60.232;24.776;2023-02-15T00:49:18;3;3;
49778;PMS5003;36217;60.232;24.776;2023-02-15T00:51:55;3;3;
49778;PMS5003;36217;60.232;24.776;2023-02-15T00:54:31;3;3;
49778;PMS5003;36217;60.232;24.776;2023-02-15T00:57:08;4;4;
49778;PMS5003;36217;60.232;24.776;2023-02-15T00:59:45;4;4;
49778;PMS5003;36217;60.232;24.776;2023-02-15T01:02:21;5;5;
49778;PMS5003;36217;60.232;24.776;2023-02-15T01:04:58;3;3;
49778;PMS5003;36217;60.232;24.776;2023-02-15T01:07:36;5;3;
49778;PMS5003;36217;60.232;24.776;2023-02-15T01:10:13;3;3;
49778;PMS5003;36217;60.232;24.776;2023-02-15T01:12:50;3;2;
49778;PMS5003;36217;60.232;24.776;2023-02-15T01:15:28;4;4;
49778;PMS5003;36217;60.232;24.776;2023-02-15T01:18:06;4;4;
49778;PMS5003;36217;60.232;24.776;2023-02-15T01:20:43;6;2;
49778;PMS5003;36217;60.232;24.776;2023-02-15T01:23:20;8;5;
49778;PMS5003;36217;60.232;24.776;2023-02-15T01:26:01;5;5;
49778;PMS5003;36217;60.232;24.776;2023-02-15T01:28:38;6;2;
49778;PMS5003;36217;60.232;24.776;2023-02-15T01:31:17;3;3;
49778;PMS5003;36217;60.232;24.776;2023-02-15T01:33:54;4;4;
49778;PMS5003;36217;60.232;24.776;2023-02-15T01:36:41;3;3;
49778;PMS5003;36217;60.232;24.776;2023-02-15T01:39:18;3;2;
49778;PMS5003;36217;60.232;24.776;2023-02-15T01:41:55;7;4;
49778;PMS5003;36217;60.232;24.776;2023-02-15T01:44:49;3;3;
49778;PMS5003;36217;60.232;24.776;2023-02-15T01:47:29;6;6;
49778;PMS5003;36217;60.232;24.776;2023-02-15T01:50:12;6;4;
49778;PMS5003;36217;60.232;24.776;2023-02-15T01:52:55;4;4;
49778;PMS5003;36217;60.232;24.776;2023-02-15T01:55:36;4;4;
49778;PMS5003;36217;60.232;24.776;2023-02-15T01:58:16;5;5;
49778;PMS5003;36217;60.232;24.776;2023-02-15T02:00:54;2;2;
49778;PMS5003;36217;60.232;24.776;2023-02-15T02:03:36;3;3;
49778;PMS5003;36217;60.232;24.776;2023-02-15T02:06:21;7;3;
49778;PMS5003;36217;60.232;24.776;2023-02-15T02:08:59;2;2;
49778;PMS5003;36217;60.232;24.776;2023-02-15T02:11:36;5;5;
49778;PMS5003;36217;60.232;24.776;2023-02-15T02:14:18;4;4;
49778;PMS5003;36217;60.232;24.776;2023-02-15T02:16:57;3;3;
49778;PMS5003;36217;60.232;24.776;2023-02-15T02:20:48;6;4;
49778;PMS5003;36217;60.232;24.776;2023-02-15T02:23:48;3;3;
49778;PMS5003;36217;60.232;24.776;2023-02-15T02:26:45;4;4;
49778;PMS5003;36217;60.232;24.776;2023-02-15T02:31:58;6;6;
49778;PMS5003;36217;60.232;24.776;2023-02-15T02:34:54;7;5;
49778;PMS5003;36217;60.232;24.776;2023-02-15T02:37:53;5;3;
49778;PMS5003;36217;60.232;24.776;2023-02-15T02:40:40;6;6;
49778;PMS5003;36217;60.232;24.776;2023-02-15T02:43:25;7;5;
49778;PMS5003;36217;60.232;24.776;2023-02-15T02:46:10;4;4;
49778;PMS5003;36217;60.232;24.776;2023-02-15T02:48:53;4;4;
49778;PMS5003;36217;60.232;24.776;2023-02-15T02:51:32;3;3;
49778;PMS5003;36217;60.232;24.776;2023-02-15T02:54:09;6;3;
49778;PMS5003;36217;60.232;24.776;2023-02-15T02:56:46;5;5;
49778;PMS5003;36217;60.232;24.776;2023-02-15T02:59:26;2;2;
49778;PMS5003;36217;60.232;24.776;2023-02-15T03:02:18;5;3;
49778;PMS5003;36217;60.232;24.776;2023-02-15T03:05:01;5;3;
49778;PMS5003;36217;60.232;24.776;2023-02-15T03:07:42;5;3;
49778;PMS5003;36217;60.232;24.776;2023-02-15T03:10:22;3;3;
49778;PMS5003;36217;60.232;24.776;2023-02-15T03:12:59;8;5;
49778;PMS5003;36217;60.232;24.776;2023-02-15T03:15:38;3;3;
49778;PMS5003;36217;60.232;24.776;2023-02-15T03:18:16;3;3;
49778;PMS5003;36217;60.232;24.776;2023-02-15T03:20:59;3;3;
49778;PMS5003;36217;60.232;24.776;2023-02-15T03:23:39;6;6;
49778;PMS5003;36217;60.232;24.776;2023-02-15T03:26:17;6;5;
49778;PMS5003;36217;60.232;24.776;2023-02-15T03:28:55;5;5;
49778;PMS5003;36217;60.232;24.776;2023-02-15T03:31:36;6;3;
49778;PMS5003;36217;60.232;24.776;2023-02-15T03:34:16;7;5;
49778;PMS5003;36217;60.232;24.776;2023-02-15T03:36:56;6;6;
49778;PMS5003;36217;60.232;24.776;2023-02-15T03:39:41;5;5;
49778;PMS5003;36217;60.232;24.776;2023-02-15T03:42:24;3;3;
49778;PMS5003;36217;60.232;24.776;2023-02-15T03:45:15;5;3;
49778;PMS5003;36217;60.232;24.776;2023-02-15T03:47:56;5;5;
49778;PMS5003;36217;60.232;24.776;2023-02-15T03:50:37;5;3;
49778;PMS5003;36217;60.232;24.776;2023-02-15T03:53:15;3;3;
49778;PMS5003;36217;60.232;24.776;2023-02-15T03:55:54;3;3;
49778;PMS5003;36217;60.232;24.776;2023-02-15T03:58:32;8;6;
49778;PMS5003;36217;60.232;24.776;2023-02-15T04:01:10;3;3;
49778;PMS5003;36217;60.232;24.776;2023-02-15T04:03:54;3;3;
49778;PMS5003;36217;60.232;24.776;2023-02-15T04:06:34;6;5;
49778;PMS5003;36217;60.232;24.776;2023-02-15T04:09:11;6;3;
49778;PMS5003;36217;60.232;24.776;2023-02-15T04:11:49;5;5;
49778;PMS5003;36217;60.232;24.776;2023-02-15T04:14:25;3;3;
49778;PMS5003;36217;60.232;24.776;2023-02-15T04:17:04;6;5;
49778;PMS5003;36217;60.232;24.776;2023-02-15T04:19:41;5;5;
49778;PMS5003;36217;60.232;24.776;2023-02-15T04:22:18;5;5;
49778;PMS5003;36217;60.232;24.776;2023-02-15T04:24:55;7;6;
49778;PMS5003;36217;60.232;24.776;2023-02-15T04:27:32;6;6;
49778;PMS5003;36217;60.232;24.776;2023-02-15T04:30:10;5;5;
49778;PMS5003;36217;60.232;24.776;2023-02-15T04:32:49;6;6;
49778;PMS5003;36217;60.232;24.776;2023-02-15T04:35:26;5;5;
49778;PMS5003;36217;60.232;24.776;2023-02-15T04:38:13;8;6;
49778;PMS5003;36217;60.232;24.776;2023-02-15T04:40:50;7;7;
49778;PMS5003;36217;60.232;24.776;2023-02-15T04:43:27;8;7;
49778;PMS5003;36217;60.232;24.776;2023-02-15T04:46:03;6;3;
49778;PMS5003;36217;60.232;24.776;2023-02-15T04:48:40;5;5;
49778;PMS5003;36217;60.232;24.776;2023-02-15T04:51:17;6;6;
49778;PMS5003;36217;60.232;24.776;2023-02-15T04:53:54;5;3;
49778;PMS5003;36217;60.232;24.776;2023-02-15T04:56:31;5;5;
49778;PMS5003;36217;60.232;24.776;2023-02-15T04:59:09;6;6;
49778;PMS5003;36217;60.232;24.776;2023-02-15T05:01:47;6;5;
49778;PMS5003;36217;60.232;24.776;2023-02-15T05:04:24;7;5;
49778;PMS5003;36217;60.232;24.776;2023-02-15T05:07:00;5;5;
49778;PMS5003;36217;60.232;24.776;2023-02-15T05:09:37;6;6;
49778;PMS5003;36217;60.232;24.776;2023-02-15T05:12:14;7;7;
49778;PMS5003;36217;60.232;24.776;2023-02-15T05:14:51;5;5;
49778;PMS5003;36217;60.232;24.776;2023-02-15T05:17:47;10;8;
49778;PMS5003;36217;60.232;24.776;2023-02-15T05:20:24;6;6;
49778;PMS5003;36217;60.232;24.776;2023-02-15T05:23:02;8;7;
49778;PMS5003;36217;60.232;24.776;2023-02-15T05:25:38;14;6;
49778;PMS5003;36217;60.232;24.776;2023-02-15T05:28:33;10;10;
49778;PMS5003;36217;60.232;24.776;2023-02-15T05:31:21;8;7;
49778;PMS5003;36217;60.232;24.776;2023-02-15T05:33:58;3;3;
49778;PMS5003;36217;60.232;24.776;2023-02-15T05:36:35;11;11;
49778;PMS5003;36217;60.232;24.776;2023-02-15T05:39:23;6;6;
49778;PMS5003;36217;60.232;24.776;2023-02-15T05:42:00;11;7;
49778;PMS5003;36217;60.232;24.776;2023-02-15T05:44:37;11;8;
49778;PMS5003;36217;60.232;24.776;2023-02-15T05:47:14;8;6;
49778;PMS5003;36217;60.232;24.776;2023-02-15T05:49:51;5;5;
49778;PMS5003;36217;60.232;24.776;2023-02-15T05:52:28;7;7;
49778;PMS5003;36217;60.232;24.776;2023-02-15T05:55:06;6;6;
49778;PMS5003;36217;60.232;24.776;2023-02-15T05:57:43;8;8;
49778;PMS5003;36217;60.232;24.776;2023-02-15T06:00:20;11;8;
49778;PMS5003;36217;60.232;24.776;2023-02-15T06:02:57;11;8;
49778;PMS5003;36217;60.232;24.776;2023-02-15T06:05:34;8;7;
49778;PMS5003;36217;60.232;24.776;2023-02-15T06:08:11;8;8;
49778;PMS5003;36217;60.232;24.776;2023-02-15T06:10:48;10;7;
49778;PMS5003;36217;60.232;24.776;2023-02-15T06:13:25;14;10;
49778;PMS5003;36217;60.232;24.776;2023-02-15T06:16:09;8;8;
49778;PMS5003;36217;60.232;24.776;2023-02-15T06:18:51;8;8;
49778;PMS5003;36217;60.232;24.776;2023-02-15T06:21:28;8;8;
49778;PMS5003;36217;60.232;24.776;2023-02-15T06:24:05;11;7;
49778;PMS5003;36217;60.232;24.776;2023-02-15T06:26:43;10;10;
49778;PMS5003;36217;60.232;24.776;2023-02-15T06:29:20;10;9;
49778;PMS5003;36217;60.232;24.776;2023-02-15T06:31:57;12;8;
49778;PMS5003;36217;60.232;24.776;2023-02-15T06:34:44;12;10;
49778;PMS5003;36217;60.232;24.776;2023-02-15T06:37:21;11;11;
49778;PMS5003;36217;60.232;24.776;2023-02-15T06:39:58;8;8;
49778;PMS5003;36217;60.232;24.776;2023-02-15T06:42:36;10;8;
49778;PMS5003;36217;60.232;24.776;2023-02-15T06:45:13;8;7;
49778;PMS5003;36217;60.232;24.776;2023-02-15T06:47:50;8;8;
49778;PMS5003;36217;60.232;24.776;2023-02-15T06:50:27;10;10;
49778;PMS5003;36217;60.232;24.776;2023-02-15T06:53:05;20;14;
49778;PMS5003;36217;60.232;24.776;2023-02-15T06:55:41;12;7;
49778;PMS5003;36217;60.232;24.776;2023-02-15T06:58:19;15;15;
49778;PMS5003;36217;60.232;24.776;2023-02-15T07:00:56;13;11;
49778;PMS5003;36217;60.232;24.776;2023-02-15T07:03:32;8;8;
49778;PMS5003;36217;60.232;24.776;2023-02-15T07:06:10;11;8;
49778;PMS5003;36217;60.232;24.776;2023-02-15T07:08:47;13;11;
49778;PMS5003;36217;60.232;24.776;2023-02-15T07:11:24;16;13;
49778;PMS5003;36217;60.232;24.776;2023-02-15T07:14:01;12;12;
49778;PMS5003;36217;60.232;24.776;2023-02-15T07:16:39;13;12;
49778;PMS5003;36217;60.232;24.776;2023-02-15T07:19:15;18;11;
49778;PMS5003;36217;60.232;24.776;2023-02-15T07:21:52;17;11;
49778;PMS5003;36217;60.232;24.776;2023-02-15T07:24:29;13;12;
49778;PMS5003;36217;60.232;24.776;2023-02-15T07:27:06;20;12;
49778;PMS5003;36217;60.232;24.776;2023-02-15T07:29:53;15;15;
49778;PMS5003;36217;60.232;24.776;2023-02-15T07:32:30;16;13;
49778;PMS5003;36217;60.232;24.776;2023-02-15T07:35:09;11;11;
49778;PMS5003;36217;60.232;24.776;2023-02-15T07:37:46;18;12;
49778;PMS5003;36217;60.232;24.776;2023-02-15T07:40:23;15;12;
49778;PMS5003;36217;60.232;24.776;2023-02-15T07:43:00;20;16;
49778;PMS5003;36217;60.232;24.776;2023-02-15T07:45:37;15;15;
49778;PMS5003;36217;60.232;24.776;2023-02-15T07:48:31;16;9;
49778;PMS5003;36217;60.232;24.776;2023-02-15T07:51:08;16;12;
49778;PMS5003;36217;60.232;24.776;2023-02-15T07:53:46;13;12;
49778;PMS5003;36217;60.232;24.776;2023-02-15T07:56:30;13;12;
49778;PMS5003;36217;60.232;24.776;2023-02-15T07:59:07;16;11;
49778;PMS5003;36217;60.232;24.776;2023-02-15T08:01:44;12;11;
49778;PMS5003;36217;60.232;24.776;2023-02-15T08:04:21;12;11;
49778;PMS5003;36217;60.232;24.776;2023-02-15T08:06:57;14;12;
49778;PMS5003;36217;60.232;24.776;2023-02-15T08:09:34;14;14;
49778;PMS5003;36217;60.232;24.776;2023-02-15T08:12:11;16;12;
49778;PMS5003;36217;60.232;24.776;2023-02-15T08:14:59;14;13;
49778;PMS5003;36217;60.232;24.776;2023-02-15T08:17:36;16;14;
49778;PMS5003;36217;60.232;24.776;2023-02-15T08:20:13;23;14;
49778;PMS5003;36217;60.232;24.776;2023-02-15T08:22:50;19;13;
49778;PMS5003;36217;60.232;24.776;2023-02-15T08:25:27;12;11;
49778;PMS5003;36217;60.232;24.776;2023-02-15T08:28:04;17;15;
49778;PMS5003;36217;60.232;24.776;2023-02-15T08:30:41;14;13;
49778;PMS5003;36217;60.232;24.776;2023-02-15T08:33:19;16;13;
49778;PMS5003;36217;60.232;24.776;2023-02-15T08:35:55;12;8;
49778;PMS5003;36217;60.232;24.776;2023-02-15T08:38:35;16;11;
49778;PMS5003;36217;60.232;24.776;2023-02-15T08:41:13;14;14;
49778;PMS5003;36217;60.232;24.776;2023-02-15T08:43:52;23;16;
49778;PMS5003;36217;60.232;24.776;2023-02-15T08:46:30;20;14;
49778;PMS5003;36217;60.232;24.776;2023-02-15T08:49:08;19;11;
49778;PMS5003;36217;60.232;24.776;2023-02-15T08:51:48;22;16;
49778;PMS5003;36217;60.232;24.776;2023-02-15T08:54:25;15;12;
49778;PMS5003;36217;60.232;24.776;2023-02-15T08:57:02;17;14;
49778;PMS5003;36217;60.232;24.776;2023-02-15T08:59:39;13;13;
49778;PMS5003;36217;60.232;24.776;2023-02-15T09:02:15;18;17;
49778;PMS5003;36217;60.232;24.776;2023-02-15T09:04:52;14;14;
49778;PMS5003;36217;60.232;24.776;2023-02-15T09:07:29;13;13;
49778;PMS5003;36217;60.232;24.776;2023-02-15T09:10:06;17;13;
49778;PMS5003;36217;60.232;24.776;2023-02-15T09:12:44;22;18;
49778;PMS5003;36217;60.232;24.776;2023-02-15T09:15:30;15;15;
49778;PMS5003;36217;60.232;24.776;2023-02-15T09:18:07;15;14;
49778;PMS5003;36217;60.232;24.776;2023-02-15T09:20:44;10;10;
49778;PMS5003;36217;60.232;24.776;2023-02-15T09:23:21;14;12;
49778;PMS5003;36217;60.232;24.776;2023-02-15T09:26:01;12;12;
49778;PMS5003;36217;60.232;24.776;2023-02-15T09:28:40;14;13;
49778;PMS5003;36217;60.232;24.776;2023-02-15T09:31:19;17;15;
49778;PMS5003;36217;60.232;24.776;2023-02-15T09:33:58;21;16;
49778;PMS5003;36217;60.232;24.776;2023-02-15T09:36:36;14;9;
49778;PMS5003;36217;60.232;24.776;2023-02-15T09:39:14;9;7;
49778;PMS5003;36217;60.232;24.776;2023-02-15T09:44:12;11;11;
49778;PMS5003;36217;60.232;24.776;2023-02-15T09:47:04;11;8;
49778;PMS5003;36217;60.232;24.776;2023-02-15T09:49:55;7;7;
49778;PMS5003;36217;60.232;24.776;2023-02-15T09:52:43;9;9;
49778;PMS5003;36217;60.232;24.776;2023-02-15T09:55:47;7;7;
49778;PMS5003;36217;60.232;24.776;2023-02-15T09:58:33;4;4;
49778;PMS5003;36217;60.232;24.776;2023-02-15T10:01:19;9;7;
49778;PMS5003;36217;60.232;24.776;2023-02-15T10:04:08;7;4;
49778;PMS5003;36217;60.232;24.776;2023-02-15T10:07:00;6;4;
49778;PMS5003;36217;60.232;24.776;2023-02-15T10:09:54;3;3;
49778;PMS5003;36217;60.232;24.776;2023-02-15T10:12:52;6;6;
49778;PMS5003;36217;60.232;24.776;2023-02-15T10:15:42;2;2;
49778;PMS5003;36217;60.232;24.776;2023-02-15T10:18:34;4;4;
49778;PMS5003;36217;60.232;24.776;2023-02-15T10:21:24;4;4;
49778;PMS5003;36217;60.232;24.776;2023-02-15T10:24:19;8;7;
49778;PMS5003;36217;60.232;24.776;2023-02-15T10:27:08;8;4;
49778;PMS5003;36217;60.232;24.776;2023-02-15T10:29:53;8;4;
49778;PMS5003;36217;60.232;24.776;2023-02-15T10:32:40;6;6;
49778;PMS5003;36217;60.232;24.776;2023-02-15T10:35:33;6;6;
49778;PMS5003;36217;60.232;24.776;2023-02-15T10:38:20;4;4;
49778;PMS5003;36217;60.232;24.776;2023-02-15T10:41:11;6;4;
49778;PMS5003;36217;60.232;24.776;2023-02-15T10:44:05;6;6;
49778;PMS5003;36217;60.232;24.776;2023-02-15T10:47:02;6;4;
49778;PMS5003;36217;60.232;24.776;2023-02-15T10:49:53;6;6;
49778;PMS5003;36217;60.232;24.776;2023-02-15T10:52:46;4;4;
49778;PMS5003;36217;60.232;24.776;2023-02-15T10:55:48;6;4;
49778;PMS5003;36217;60.232;24.776;2023-02-15T10:58:34;7;7;
49778;PMS5003;36217;60.232;24.776;2023-02-15T11:01:24;4;3;
49778;PMS5003;36217;60.232;24.776;2023-02-15T11:04:09;8;6;
49778;PMS5003;36217;60.232;24.776;2023-02-15T11:07:13;6;4;
49778;PMS5003;36217;60.232;24.776;2023-02-15T11:09:57;4;4;
49778;PMS5003;36217;60.232;24.776;2023-02-15T11:10:22;6;4;
49778;PMS5003;36217;60.232;24.776;2023-02-15T11:13:03;9;4;
49778;PMS5003;36217;60.232;24.776;2023-02-15T11:15:45;9;8;
49778;PMS5003;36217;60.232;24.776;2023-02-15T11:18:32;8;7;
49778;PMS5003;36217;60.232;24.776;2023-02-15T11:21:13;7;7;
49778;PMS5003;36217;60.232;24.776;2023-02-15T11:23:57;7;6;
49778;PMS5003;36217;60.232;24.776;2023-02-15T11:26:41;7;6;
49778;PMS5003;36217;60.232;24.776;2023-02-15T11:29:23;9;9;
49778;PMS5003;36217;60.232;24.776;2023-02-15T11:32:12;7;7;
49778;PMS5003;36217;60.232;24.776;2023-02-15T11:34:53;7;7;
49778;PMS5003;36217;60.232;24.776;2023-02-15T11:37:36;6;6;
49778;PMS5003;36217;60.232;24.776;2023-02-15T11:40:19;8;6;
49778;PMS5003;36217;60.232;24.776;2023-02-15T11:43:01;8;8;
49778;PMS5003;36217;60.232;24.776;2023-02-15T11:45:45;6;6;
49778;PMS5003;36217;60.232;24.776;2023-02-15T11:48:23;9;7;
49778;PMS5003;36217;60.232;24.776;2023-02-15T11:51:01;4;4;
49778;PMS5003;36217;60.232;24.776;2023-02-15T11:53:42;7;7;
49778;PMS5003;36217;60.232;24.776;2023-02-15T11:56:30;7;7;
49778;PMS5003;36217;60.232;24.776;2023-02-15T11:59:09;9;8;
49778;PMS5003;36217;60.232;24.776;2023-02-15T12:01:52;6;4;
49778;PMS5003;36217;60.232;24.776;2023-02-15T12:04:30;8;8;
49778;PMS5003;36217;60.232;24.776;2023-02-15T12:07:11;7;7;
49778;PMS5003;36217;60.232;24.776;2023-02-15T12:09:55;10;7;
49778;PMS5003;36217;60.232;24.776;2023-02-15T12:12:44;8;6;
49778;PMS5003;36217;60.232;24.776;2023-02-15T12:15:40;6;6;
49778;PMS5003;36217;60.232;24.776;2023-02-15T12:18:21;6;6;
49778;PMS5003;36217;60.232;24.776;2023-02-15T12:21:06;4;4;
49778;PMS5003;36217;60.232;24.776;2023-02-15T12:23:46;7;6;
49778;PMS5003;36217;60.232;24.776;2023-02-15T12:26:26;7;7;
49778;PMS5003;36217;60.232;24.776;2023-02-15T12:29:12;7;4;
49778;PMS5003;36217;60.232;24.776;2023-02-15T12:31:54;8;6;
49778;PMS5003;36217;60.232;24.776;2023-02-15T12:34:32;4;3;
49778;PMS5003;36217;60.232;24.776;2023-02-15T12:37:10;2;2;
49778;PMS5003;36217;60.232;24.776;2023-02-15T12:39:55;2;2;
49778;PMS5003;36217;60.232;24.776;2023-02-15T12:42:41;3;2;
49778;PMS5003;36217;60.232;24.776;2023-02-15T12:45:21;2;2;
49778;PMS5003;36217;60.232;24.776;2023-02-15T12:48:08;2;2;
49778;PMS5003;36217;60.232;24.776;2023-02-15T12:50:47;2;2;
49778;PMS5003;36217;60.232;24.776;2023-02-15T12:53:37;3;2;
49778;PMS5003;36217;60.232;24.776;2023-02-15T12:56:14;4;3;
49778;PMS5003;36217;60.232;24.776;2023-02-15T12:57:13;4;3;
49778;PMS5003;36217;60.232;24.776;2023-02-15T12:59:57;2;2;
49778;PMS5003;36217;60.232;24.776;2023-02-15T13:02:36;3;2;
49778;PMS5003;36217;60.232;24.776;2023-02-15T13:05:19;1;1;
49778;PMS5003;36217;60.232;24.776;2023-02-15T13:08:02;1;1;
49778;PMS5003;36217;60.232;24.776;2023-02-15T13:10:42;1;1;
49778;PMS5003;36217;60.232;24.776;2023-02-15T13:13:31;0;0;
49778;PMS5003;36217;60.232;24.776;2023-02-15T13:16:19;1;1;
49778;PMS5003;36217;60.232;24.776;2023-02-15T13:19:02;1;1;
49778;PMS5003;36217;60.232;24.776;2023-02-15T13:21:43;1;1;
49778;PMS5003;36217;60.232;24.776;2023-02-15T13:24:24;1;1;
49778;PMS5003;36217;60.232;24.776;2023-02-15T13:27:05;1;1;
49778;PMS5003;36217;60.232;24.776;2023-02-15T13:29:46;2;2;
49778;PMS5003;36217;60.232;24.776;2023-02-15T13:32:28;2;2;
49778;PMS5003;36217;60.232;24.776;2023-02-15T13:35:10;1;1;
49778;PMS5003;36217;60.232;24.776;2023-02-15T13:37:56;1;1;
49778;PMS5003;36217;60.232;24.776;2023-02-15T13:41:12;4;2;
49778;PMS5003;36217;60.232;24.776;2023-02-15T13:43:57;1;1;
49778;PMS5003;36217;60.232;24.776;2023-02-15T13:46:46;1;1;
49778;PMS5003;36217;60.232;24.776;2023-02-15T13:49:37;2;1;
49778;PMS5003;36217;60.232;24.776;2023-02-15T13:52:23;2;2;
49778;PMS5003;36217;60.232;24.776;2023-02-15T13:55:07;1;1;
49778;PMS5003;36217;60.232;24.776;2023-02-15T13:58:01;1;1;
49778;PMS5003;36217;60.232;24.776;2023-02-15T14:00:51;2;2;
49778;PMS5003;36217;60.232;24.776;2023-02-15T14:03:43;1;1;
49778;PMS5003;36217;60.232;24.776;2023-02-15T14:06:36;2;2;
49778;PMS5003;36217;60.232;24.776;2023-02-15T14:09:27;2;2;
49778;PMS5003;36217;60.232;24.776;2023-02-15T14:12:20;2;2;
49778;PMS5003;36217;60.232;24.776;2023-02-15T14:15:13;2;2;
49778;PMS5003;36217;60.232;24.776;2023-02-15T14:18:06;1;1;
49778;PMS5003;36217;60.232;24.776;2023-02-15T14:20:56;2;2;
49778;PMS5003;36217;60.232;24.776;2023-02-15T14:23:42;1;1;
49778;PMS5003;36217;60.232;24.776;2023-02-15T14:28:01;2;2;
49778;PMS5003;36217;60.232;24.776;2023-02-15T14:30:53;2;2;
49778;PMS5003;36217;60.232;24.776;2023-02-15T14:33:32;2;1;
49778;PMS5003;36217;60.232;24.776;2023-02-15T14:36:13;1;1;
49778;PMS5003;36217;60.232;24.776;2023-02-15T14:38:55;2;2;
49778;PMS5003;36217;60.232;24.776;2023-02-15T14:41:53;2;2;
49778;PMS5003;36217;60.232;24.776;2023-02-15T14:44:37;2;2;
49778;PMS5003;36217;60.232;24.776;2023-02-15T14:47:19;2;2;
49778;PMS5003;36217;60.232;24.776;2023-02-15T14:50:27;1;1;
49778;PMS5003;36217;60.232;24.776;2023-02-15T14:53:22;6;3;
49778;PMS5003;36217;60.232;24.776;2023-02-15T14:53:43;6;3;
49778;PMS5003;36217;60.232;24.776;2023-02-15T14:56:22;4;2;
49778;PMS5003;36217;60.232;24.776;2023-02-15T14:59:07;1;1;
49778;PMS5003;36217;60.232;24.776;2023-02-15T15:01:52;3;3;
49778;PMS5003;36217;60.232;24.776;2023-02-15T15:04:31;2;2;
49778;PMS5003;36217;60.232;24.776;2023-02-15T15:07:14;1;1;
49778;PMS5003;36217;60.232;24.776;2023-02-15T15:09:58;2;2;
49778;PMS5003;36217;60.232;24.776;2023-02-15T15:12:39;3;2;
49778;PMS5003;36217;60.232;24.776;2023-02-15T15:15:32;2;2;
49778;PMS5003;36217;60.232;24.776;2023-02-15T15:18:42;3;3;
49778;PMS5003;36217;60.232;24.776;2023-02-15T15:21:54;2;2;
49778;PMS5003;36217;60.232;24.776;2023-02-15T15:24:51;3;3;
49778;PMS5003;36217;60.232;24.776;2023-02-15T15:27:45;3;3;
49778;PMS5003;36217;60.232;24.776;2023-02-15T15:30:56;6;4;
49778;PMS5003;36217;60.232;24.776;2023-02-15T15:33:55;4;4;
49778;PMS5003;36217;60.232;24.776;2023-02-15T15:36:57;3;2;
49778;PMS5003;36217;60.232;24.776;2023-02-15T15:40:26;3;3;
49778;PMS5003;36217;60.232;24.776;2023-02-15T15:43:45;6;3;
49778;PMS5003;36217;60.232;24.776;2023-02-15T15:46:44;4;3;
49778;PMS5003;36217;60.232;24.776;2023-02-15T15:49:30;7;4;
49778;PMS5003;36217;60.232;24.776;2023-02-15T15:52:14;4;4;
49778;PMS5003;36217;60.232;24.776;2023-02-15T15:54:54;4;4;
49778;PMS5003;36217;60.232;24.776;2023-02-15T15:57:37;6;4;
49778;PMS5003;36217;60.232;24.776;2023-02-15T16:00:24;6;6;
49778;PMS5003;36217;60.232;24.776;2023-02-15T16:03:05;6;6;
49778;PMS5003;36217;60.232;24.776;2023-02-15T16:05:52;3;3;
49778;PMS5003;36217;60.232;24.776;2023-02-15T16:08:30;7;6;
49778;PMS5003;36217;60.232;24.776;2023-02-15T16:11:12;4;4;
49778;PMS5003;36217;60.232;24.776;2023-02-15T16:13:52;7;4;
49778;PMS5003;36217;60.232;24.776;2023-02-15T16:16:29;11;8;
49778;PMS5003;36217;60.232;24.776;2023-02-15T16:19:14;7;6;
49778;PMS5003;36217;60.232;24.776;2023-02-15T16:21:55;4;4;
49778;PMS5003;36217;60.232;24.776;2023-02-15T16:24:38;11;7;
49778;PMS5003;36217;60.232;24.776;2023-02-15T16:27:32;9;8;
49778;PMS5003;36217;60.232;24.776;2023-02-15T16:30:19;18;13;
49778;PMS5003;36217;60.232;24.776;2023-02-15T16:33:03;11;9;
49778;PMS5003;36217;60.232;24.776;2023-02-15T16:35:53;11;8;
49778;PMS5003;36217;60.232;24.776;2023-02-15T16:39:46;14;11;
49778;PMS5003;36217;60.232;24.776;2023-02-15T16:42:23;12;8;
49778;PMS5003;36217;60.232;24.776;2023-02-15T16:45:01;9;9;
49778;PMS5003;36217;60.232;24.776;2023-02-15T16:47:45;16;13;
49778;PMS5003;36217;60.232;24.776;2023-02-15T16:50:26;8;8;
49778;PMS5003;36217;60.232;24.776;2023-02-15T16:53:13;16;9;
49778;PMS5003;36217;60.232;24.776;2023-02-15T16:55:55;11;8;
49778;PMS5003;36217;60.232;24.776;2023-02-15T16:58:36;12;11;
49778;PMS5003;36217;60.232;24.776;2023-02-15T17:01:15;13;12;
49778;PMS5003;36217;60.232;24.776;2023-02-15T17:04:10;12;9;
49778;PMS5003;36217;60.232;24.776;2023-02-15T17:06:58;9;8;
49778;PMS5003;36217;60.232;24.776;2023-02-15T17:09:36;13;12;
49778;PMS5003;36217;60.232;24.776;2023-02-15T17:12:44;16;13;
49778;PMS5003;36217;60.232;24.776;2023-02-15T17:15:24;12;12;
49778;PMS5003;36217;60.232;24.776;2023-02-15T17:18:04;11;9;
49778;PMS5003;36217;60.232;24.776;2023-02-15T17:20:46;11;11;
49778;PMS5003;36217;60.232;24.776;2023-02-15T17:23:28;11;11;
49778;PMS5003;36217;60.232;24.776;2023-02-15T17:26:11;17;14;
49778;PMS5003;36217;60.232;24.776;2023-02-15T17:28:51;23;21;
49778;PMS5003;36217;60.232;24.776;2023-02-15T17:31:31;17;13;
49778;PMS5003;36217;60.232;24.776;2023-02-15T17:34:09;12;11;
49778;PMS5003;36217;60.232;24.776;2023-02-15T17:38:02;16;11;
49778;PMS5003;36217;60.232;24.776;2023-02-15T17:40:48;14;13;
49778;PMS5003;36217;60.232;24.776;2023-02-15T17:43:24;9;9;
49778;PMS5003;36217;60.232;24.776;2023-02-15T17:46:01;13;11;
49778;PMS5003;36217;60.232;24.776;2023-02-15T17:48:39;18;13;
49778;PMS5003;36217;60.232;24.776;2023-02-15T17:51:19;13;13;
49778;PMS5003;36217;60.232;24.776;2023-02-15T17:53:56;17;14;
49778;PMS5003;36217;60.232;24.776;2023-02-15T17:56:34;11;11;
49778;PMS5003;36217;60.232;24.776;2023-02-15T17:59:12;11;9;
49778;PMS5003;36217;60.232;24.776;2023-02-15T18:01:48;14;11;
49778;PMS5003;36217;60.232;24.776;2023-02-15T18:04:26;11;11;
49778;PMS5003;36217;60.232;24.776;2023-02-15T18:07:04;13;11;
49778;PMS5003;36217;60.232;24.776;2023-02-15T18:09:43;15;13;
49778;PMS5003;36217;60.232;24.776;2023-02-15T18:12:21;14;12;